sensor_id;sensor_type;location;lat;lon;timestamp;temperature;humidity
12839;DHT22;6486;51.034;5.262;2024-01-30T00:01:36;17.30;45.80
12839;DHT22;6486;51.034;5.262;2024-01-30T00:04:02;17.30;45.70
12839;DHT22;6486;51.034;5.262;2024-01-30T00:06:27;17.30;45.70
12839;DHT22;6486;51.034;5.262;2024-01-30T00:08:53;17.30;45.70
12839;DHT22;6486;51.034;5.262;2024-01-30T00:11:19;17.30;45.70
12839;DHT22;6486;51.034;5.262;2024-01-30T00:13:44;17.30;45.70
12839;DHT22;6486;51.034;5.262;2024-01-30T00:16:20;17.30;45.70
12839;DHT22;6486;51.034;5.262;2024-01-30T00:18:46;17.30;45.70
12839;DHT22;6486;51.034;5.262;2024-01-30T00:21:12;17.30;45.70
12839;DHT22;6486;51.034;5.262;2024-01-30T00:23:38;17.30;45.70
12839;DHT22;6486;51.034;5.262;2024-01-30T00:26:04;17.30;45.70
12839;DHT22;6486;51.034;5.262;2024-01-30T00:28:30;17.30;45.70
12839;DHT22;6486;51.034;5.262;2024-01-30T00:30:56;17.30;45.60
12839;DHT22;6486;51.034;5.262;2024-01-30T00:33:22;17.30;45.70
12839;DHT22;6486;51.034;5.262;2024-01-30T00:35:48;17.30;45.60
12839;DHT22;6486;51.034;5.262;2024-01-30T00:38:13;17.30;45.70
12839;DHT22;6486;51.034;5.262;2024-01-30T00:43:20;17.30;45.60
12839;DHT22;6486;51.034;5.262;2024-01-30T00:45:46;17.30;45.60
12839;DHT22;6486;51.034;5.262;2024-01-30T00:48:12;17.30;45.60
12839;DHT22;6486;51.034;5.262;2024-01-30T00:50:38;17.30;45.60
12839;DHT22;6486;51.034;5.262;2024-01-30T00:53:03;17.30;45.60
12839;DHT22;6486;51.034;5.262;2024-01-30T00:55:29;17.30;45.60
12839;DHT22;6486;51.034;5.262;2024-01-30T00:57:55;17.30;45.60
12839;DHT22;6486;51.034;5.262;2024-01-30T01:00:20;17.30;45.60
12839;DHT22;6486;51.034;5.262;2024-01-30T01:02:47;17.30;45.60
12839;DHT22;6486;51.034;5.262;2024-01-30T01:05:12;17.30;45.60
12839;DHT22;6486;51.034;5.262;2024-01-30T01:07:38;17.30;45.60
12839;DHT22;6486;51.034;5.262;2024-01-30T01:10:06;17.30;45.60
12839;DHT22;6486;51.034;5.262;2024-01-30T01:12:31;17.30;45.60
12839;DHT22;6486;51.034;5.262;2024-01-30T01:14:57;17.30;45.60
12839;DHT22;6486;51.034;5.262;2024-01-30T01:17:22;17.30;45.60
12839;DHT22;6486;51.034;5.262;2024-01-30T01:19:48;17.30;45.50
12839;DHT22;6486;51.034;5.262;2024-01-30T01:22:14;17.30;45.50
12839;DHT22;6486;51.034;5.262;2024-01-30T01:24:39;17.30;45.50
12839;DHT22;6486;51.034;5.262;2024-01-30T01:27:05;17.30;45.50
12839;DHT22;6486;51.034;5.262;2024-01-30T01:29:31;17.30;45.60
12839;DHT22;6486;51.034;5.262;2024-01-30T01:31:57;17.30;45.50
12839;DHT22;6486;51.034;5.262;2024-01-30T01:34:23;17.30;45.50
12839;DHT22;6486;51.034;5.262;2024-01-30T01:36:50;17.30;45.50
12839;DHT22;6486;51.034;5.262;2024-01-30T01:39:16;17.30;45.60
12839;DHT22;6486;51.034;5.262;2024-01-30T01:41:42;17.20;45.40
12839;DHT22;6486;51.034;5.262;2024-01-30T01:44:08;17.20;45.40
12839;DHT22;6486;51.034;5.262;2024-01-30T01:46:34;17.20;45.40
12839;DHT22;6486;51.034;5.262;2024-01-30T01:49:07;17.20;45.40
12839;DHT22;6486;51.034;5.262;2024-01-30T01:51:34;17.20;45.40
12839;DHT22;6486;51.034;5.262;2024-01-30T01:54:05;17.20;45.50
12839;DHT22;6486;51.034;5.262;2024-01-30T01:56:33;17.20;45.40
12839;DHT22;6486;51.034;5.262;2024-01-30T01:59:07;17.20;45.40
12839;DHT22;6486;51.034;5.262;2024-01-30T02:01:34;17.20;45.40
12839;DHT22;6486;51.034;5.262;2024-01-30T02:04:00;17.20;45.50
12839;DHT22;6486;51.034;5.262;2024-01-30T02:06:27;17.20;45.40
12839;DHT22;6486;51.034;5.262;2024-01-30T02:08:53;17.20;45.40
12839;DHT22;6486;51.034;5.262;2024-01-30T02:11:20;17.20;45.50
12839;DHT22;6486;51.034;5.262;2024-01-30T02:13:46;17.20;45.40
12839;DHT22;6486;51.034;5.262;2024-01-30T02:16:11;17.20;45.40
12839;DHT22;6486;51.034;5.262;2024-01-30T02:18:37;17.20;45.40
12839;DHT22;6486;51.034;5.262;2024-01-30T02:21:07;17.20;45.40
12839;DHT22;6486;51.034;5.262;2024-01-30T02:23:34;17.20;45.40
12839;DHT22;6486;51.034;5.262;2024-01-30T02:26:00;17.20;45.40
12839;DHT22;6486;51.034;5.262;2024-01-30T02:28:26;17.20;45.40
12839;DHT22;6486;51.034;5.262;2024-01-30T02:30:53;17.20;45.40
12839;DHT22;6486;51.034;5.262;2024-01-30T02:33:19;17.10;45.40
12839;DHT22;6486;51.034;5.262;2024-01-30T02:35:44;17.20;45.40
12839;DHT22;6486;51.034;5.262;2024-01-30T02:38:10;17.10;45.40
12839;DHT22;6486;51.034;5.262;2024-01-30T02:40:36;17.10;45.40
12839;DHT22;6486;51.034;5.262;2024-01-30T02:43:02;17.10;45.40
12839;DHT22;6486;51.034;5.262;2024-01-30T02:45:28;17.10;45.40
12839;DHT22;6486;51.034;5.262;2024-01-30T02:47:54;17.20;45.50
12839;DHT22;6486;51.034;5.262;2024-01-30T02:50:19;17.10;45.40
12839;DHT22;6486;51.034;5.262;2024-01-30T02:52:45;17.10;45.40
12839;DHT22;6486;51.034;5.262;2024-01-30T02:55:11;17.10;45.40
12839;DHT22;6486;51.034;5.262;2024-01-30T02:57:37;17.10;45.40
12839;DHT22;6486;51.034;5.262;2024-01-30T03:00:04;17.10;45.40
12839;DHT22;6486;51.034;5.262;2024-01-30T03:02:31;17.10;45.40
12839;DHT22;6486;51.034;5.262;2024-01-30T03:04:57;17.10;45.40
12839;DHT22;6486;51.034;5.262;2024-01-30T03:07:23;17.10;45.40
12839;DHT22;6486;51.034;5.262;2024-01-30T03:09:49;17.10;45.40
12839;DHT22;6486;51.034;5.262;2024-01-30T03:12:15;17.10;45.40
12839;DHT22;6486;51.034;5.262;2024-01-30T03:14:40;17.10;45.40
12839;DHT22;6486;51.034;5.262;2024-01-30T03:17:06;17.10;45.40
12839;DHT22;6486;51.034;5.262;2024-01-30T03:19:32;17.10;45.40
12839;DHT22;6486;51.034;5.262;2024-01-30T03:21:57;17.10;45.50
12839;DHT22;6486;51.034;5.262;2024-01-30T03:24:23;17.10;45.50
12839;DHT22;6486;51.034;5.262;2024-01-30T03:26:48;17.10;45.50
12839;DHT22;6486;51.034;5.262;2024-01-30T03:29:14;17.10;45.50
12839;DHT22;6486;51.034;5.262;2024-01-30T03:31:41;17.10;45.50
12839;DHT22;6486;51.034;5.262;2024-01-30T03:34:06;17.10;45.50
12839;DHT22;6486;51.034;5.262;2024-01-30T03:36:32;17.10;45.50
12839;DHT22;6486;51.034;5.262;2024-01-30T03:39:00;17.10;45.50
12839;DHT22;6486;51.034;5.262;2024-01-30T03:41:26;17.10;45.50
12839;DHT22;6486;51.034;5.262;2024-01-30T03:43:52;17.10;45.50
12839;DHT22;6486;51.034;5.262;2024-01-30T03:46:18;17.00;45.40
12839;DHT22;6486;51.034;5.262;2024-01-30T03:48:45;17.00;45.40
12839;DHT22;6486;51.034;5.262;2024-01-30T03:51:11;17.10;45.50
12839;DHT22;6486;51.034;5.262;2024-01-30T03:53:41;17.10;45.50
12839;DHT22;6486;51.034;5.262;2024-01-30T03:56:08;17.10;45.50
12839;DHT22;6486;51.034;5.262;2024-01-30T03:58:34;17.10;45.50
12839;DHT22;6486;51.034;5.262;2024-01-30T04:00:59;17.10;45.50
12839;DHT22;6486;51.034;5.262;2024-01-30T04:03:25;17.00;45.40
12839;DHT22;6486;51.034;5.262;2024-01-30T04:05:52;17.00;45.40
12839;DHT22;6486;51.034;5.262;2024-01-30T04:08:18;17.00;45.40
12839;DHT22;6486;51.034;5.262;2024-01-30T04:10:43;17.00;45.50
12839;DHT22;6486;51.034;5.262;2024-01-30T04:13:10;17.00;45.50
12839;DHT22;6486;51.034;5.262;2024-01-30T04:15:35;17.00;45.50
12839;DHT22;6486;51.034;5.262;2024-01-30T04:18:01;17.10;45.60
12839;DHT22;6486;51.034;5.262;2024-01-30T04:20:27;17.00;45.50
12839;DHT22;6486;51.034;5.262;2024-01-30T04:22:53;17.00;45.50
12839;DHT22;6486;51.034;5.262;2024-01-30T04:25:18;17.00;45.50
12839;DHT22;6486;51.034;5.262;2024-01-30T04:27:44;17.00;45.50
12839;DHT22;6486;51.034;5.262;2024-01-30T04:30:10;17.00;45.50
12839;DHT22;6486;51.034;5.262;2024-01-30T04:32:36;17.00;45.50
12839;DHT22;6486;51.034;5.262;2024-01-30T04:35:02;17.00;45.50
12839;DHT22;6486;51.034;5.262;2024-01-30T04:37:28;17.00;45.60
12839;DHT22;6486;51.034;5.262;2024-01-30T04:39:54;17.00;45.50
12839;DHT22;6486;51.034;5.262;2024-01-30T04:42:20;17.00;45.50
12839;DHT22;6486;51.034;5.262;2024-01-30T04:44:45;17.00;45.60
12839;DHT22;6486;51.034;5.262;2024-01-30T04:47:11;17.00;45.60
12839;DHT22;6486;51.034;5.262;2024-01-30T04:49:38;17.00;45.60
12839;DHT22;6486;51.034;5.262;2024-01-30T04:52:05;17.00;45.60
12839;DHT22;6486;51.034;5.262;2024-01-30T04:54:31;17.00;45.60
12839;DHT22;6486;51.034;5.262;2024-01-30T04:56:57;17.00;45.60
12839;DHT22;6486;51.034;5.262;2024-01-30T04:59:22;17.00;45.60
12839;DHT22;6486;51.034;5.262;2024-01-30T05:01:48;17.00;45.60
12839;DHT22;6486;51.034;5.262;2024-01-30T05:04:14;17.00;45.70
12839;DHT22;6486;51.034;5.262;2024-01-30T05:06:39;17.00;45.70
12839;DHT22;6486;51.034;5.262;2024-01-30T05:09:05;17.00;45.70
12839;DHT22;6486;51.034;5.262;2024-01-30T05:11:31;17.00;45.70
12839;DHT22;6486;51.034;5.262;2024-01-30T05:13:57;17.00;45.70
12839;DHT22;6486;51.034;5.262;2024-01-30T05:16:22;17.00;45.70
12839;DHT22;6486;51.034;5.262;2024-01-30T05:18:48;17.00;45.70
12839;DHT22;6486;51.034;5.262;2024-01-30T05:21:14;17.00;45.80
12839;DHT22;6486;51.034;5.262;2024-01-30T05:23:40;17.00;45.80
12839;DHT22;6486;51.034;5.262;2024-01-30T05:26:07;17.00;45.80
12839;DHT22;6486;51.034;5.262;2024-01-30T05:28:33;17.00;45.90
12839;DHT22;6486;51.034;5.262;2024-01-30T05:30:59;17.00;45.80
12839;DHT22;6486;51.034;5.262;2024-01-30T05:33:25;17.00;45.90
12839;DHT22;6486;51.034;5.262;2024-01-30T05:35:50;17.00;45.90
12839;DHT22;6486;51.034;5.262;2024-01-30T05:38:19;17.00;45.90
12839;DHT22;6486;51.034;5.262;2024-01-30T05:40:45;16.90;45.80
12839;DHT22;6486;51.034;5.262;2024-01-30T05:43:11;17.00;45.90
12839;DHT22;6486;51.034;5.262;2024-01-30T05:45:37;17.00;46.00
12839;DHT22;6486;51.034;5.262;2024-01-30T05:48:03;17.00;46.00
12839;DHT22;6486;51.034;5.262;2024-01-30T05:50:28;17.00;46.00
12839;DHT22;6486;51.034;5.262;2024-01-30T05:52:54;17.00;46.00
12839;DHT22;6486;51.034;5.262;2024-01-30T05:55:20;16.90;46.00
12839;DHT22;6486;51.034;5.262;2024-01-30T05:57:45;16.90;46.00
12839;DHT22;6486;51.034;5.262;2024-01-30T06:00:11;16.90;46.00
12839;DHT22;6486;51.034;5.262;2024-01-30T06:02:37;17.00;46.10
12839;DHT22;6486;51.034;5.262;2024-01-30T06:05:03;16.90;46.00
12839;DHT22;6486;51.034;5.262;2024-01-30T06:07:28;16.90;46.10
12839;DHT22;6486;51.034;5.262;2024-01-30T06:09:54;16.90;46.10
12839;DHT22;6486;51.034;5.262;2024-01-30T06:12:20;16.90;46.10
12839;DHT22;6486;51.034;5.262;2024-01-30T06:14:45;16.90;46.00
12839;DHT22;6486;51.034;5.262;2024-01-30T06:17:11;16.90;46.10
12839;DHT22;6486;51.034;5.262;2024-01-30T06:19:38;16.90;46.20
12839;DHT22;6486;51.034;5.262;2024-01-30T06:22:07;16.90;46.20
12839;DHT22;6486;51.034;5.262;2024-01-30T06:24:32;16.90;46.20
12839;DHT22;6486;51.034;5.262;2024-01-30T06:26:59;16.90;46.20
12839;DHT22;6486;51.034;5.262;2024-01-30T06:29:26;16.90;46.20
12839;DHT22;6486;51.034;5.262;2024-01-30T06:31:52;16.90;46.20
12839;DHT22;6486;51.034;5.262;2024-01-30T06:34:18;16.90;46.20
12839;DHT22;6486;51.034;5.262;2024-01-30T06:36:43;17.00;46.40
12839;DHT22;6486;51.034;5.262;2024-01-30T06:39:09;17.00;46.40
12839;DHT22;6486;51.034;5.262;2024-01-30T06:41:35;16.90;46.30
12839;DHT22;6486;51.034;5.262;2024-01-30T06:44:02;16.90;46.30
12839;DHT22;6486;51.034;5.262;2024-01-30T06:46:29;16.90;46.30
12839;DHT22;6486;51.034;5.262;2024-01-30T06:48:55;16.90;46.40
12839;DHT22;6486;51.034;5.262;2024-01-30T06:51:21;17.00;46.50
12839;DHT22;6486;51.034;5.262;2024-01-30T06:53:46;16.90;46.40
12839;DHT22;6486;51.034;5.262;2024-01-30T06:56:12;16.90;46.40
12839;DHT22;6486;51.034;5.262;2024-01-30T06:58:37;16.90;46.40
12839;DHT22;6486;51.034;5.262;2024-01-30T07:01:04;17.00;46.50
12839;DHT22;6486;51.034;5.262;2024-01-30T07:03:29;17.00;46.50
12839;DHT22;6486;51.034;5.262;2024-01-30T07:05:55;16.90;46.50
12839;DHT22;6486;51.034;5.262;2024-01-30T07:08:21;17.00;46.60
12839;DHT22;6486;51.034;5.262;2024-01-30T07:13:24;16.90;46.50
12839;DHT22;6486;51.034;5.262;2024-01-30T07:15:50;16.90;46.50
12839;DHT22;6486;51.034;5.262;2024-01-30T07:18:16;16.90;46.70
12839;DHT22;6486;51.034;5.262;2024-01-30T07:20:42;16.90;46.60
12839;DHT22;6486;51.034;5.262;2024-01-30T07:23:12;17.00;46.70
12839;DHT22;6486;51.034;5.262;2024-01-30T07:25:40;16.90;46.60
12839;DHT22;6486;51.034;5.262;2024-01-30T07:28:07;16.90;46.60
12839;DHT22;6486;51.034;5.262;2024-01-30T07:30:35;16.90;46.70
12839;DHT22;6486;51.034;5.262;2024-01-30T07:33:01;17.00;46.70
12839;DHT22;6486;51.034;5.262;2024-01-30T07:35:26;16.90;46.70
12839;DHT22;6486;51.034;5.262;2024-01-30T07:37:52;17.00;46.80
12839;DHT22;6486;51.034;5.262;2024-01-30T07:40:18;16.90;46.80
12839;DHT22;6486;51.034;5.262;2024-01-30T07:42:44;16.90;46.80
12839;DHT22;6486;51.034;5.262;2024-01-30T07:45:09;16.90;46.80
12839;DHT22;6486;51.034;5.262;2024-01-30T07:47:35;16.90;46.80
12839;DHT22;6486;51.034;5.262;2024-01-30T07:50:01;16.90;46.80
12839;DHT22;6486;51.034;5.262;2024-01-30T07:52:26;16.90;46.90
12839;DHT22;6486;51.034;5.262;2024-01-30T07:54:52;16.90;46.90
12839;DHT22;6486;51.034;5.262;2024-01-30T07:57:18;16.90;46.90
12839;DHT22;6486;51.034;5.262;2024-01-30T07:59:44;16.90;46.90
12839;DHT22;6486;51.034;5.262;2024-01-30T08:02:12;16.90;46.90
12839;DHT22;6486;51.034;5.262;2024-01-30T08:04:37;16.90;47.00
12839;DHT22;6486;51.034;5.262;2024-01-30T08:07:03;16.90;47.00
12839;DHT22;6486;51.034;5.262;2024-01-30T08:09:29;16.90;47.00
12839;DHT22;6486;51.034;5.262;2024-01-30T08:11:54;16.90;47.00
12839;DHT22;6486;51.034;5.262;2024-01-30T08:14:20;16.90;47.00
12839;DHT22;6486;51.034;5.262;2024-01-30T08:16:46;16.90;47.10
12839;DHT22;6486;51.034;5.262;2024-01-30T08:19:12;16.90;47.10
12839;DHT22;6486;51.034;5.262;2024-01-30T08:21:37;16.90;47.10
12839;DHT22;6486;51.034;5.262;2024-01-30T08:24:04;16.90;47.10
12839;DHT22;6486;51.034;5.262;2024-01-30T08:26:30;16.90;47.20
12839;DHT22;6486;51.034;5.262;2024-01-30T08:28:56;16.90;47.20
12839;DHT22;6486;51.034;5.262;2024-01-30T08:31:22;16.90;47.20
12839;DHT22;6486;51.034;5.262;2024-01-30T08:33:47;16.90;47.20
12839;DHT22;6486;51.034;5.262;2024-01-30T08:36:13;16.90;47.20
12839;DHT22;6486;51.034;5.262;2024-01-30T08:38:39;16.90;47.20
12839;DHT22;6486;51.034;5.262;2024-01-30T08:41:04;16.90;47.20
12839;DHT22;6486;51.034;5.262;2024-01-30T08:43:30;16.90;47.20
12839;DHT22;6486;51.034;5.262;2024-01-30T08:45:59;17.00;47.20
12839;DHT22;6486;51.034;5.262;2024-01-30T08:48:25;17.00;47.20
12839;DHT22;6486;51.034;5.262;2024-01-30T08:50:51;17.00;47.20
12839;DHT22;6486;51.034;5.262;2024-01-30T08:53:17;17.00;47.20
12839;DHT22;6486;51.034;5.262;2024-01-30T08:55:42;17.00;47.10
12839;DHT22;6486;51.034;5.262;2024-01-30T08:58:08;17.00;47.10
12839;DHT22;6486;51.034;5.262;2024-01-30T09:00:34;17.10;47.20
12839;DHT22;6486;51.034;5.262;2024-01-30T09:02:59;17.10;47.20
12839;DHT22;6486;51.034;5.262;2024-01-30T09:05:25;17.10;47.10
12839;DHT22;6486;51.034;5.262;2024-01-30T09:07:50;17.20;47.20
12839;DHT22;6486;51.034;5.262;2024-01-30T09:10:16;17.20;47.20
12839;DHT22;6486;51.034;5.262;2024-01-30T09:12:42;17.20;47.20
12839;DHT22;6486;51.034;5.262;2024-01-30T09:15:08;17.20;47.10
12839;DHT22;6486;51.034;5.262;2024-01-30T09:17:34;17.30;47.10
12839;DHT22;6486;51.034;5.262;2024-01-30T09:19:59;17.30;47.10
12839;DHT22;6486;51.034;5.262;2024-01-30T09:22:25;17.30;47.10
12839;DHT22;6486;51.034;5.262;2024-01-30T09:24:51;17.30;47.10
12839;DHT22;6486;51.034;5.262;2024-01-30T09:27:17;17.30;47.10
12839;DHT22;6486;51.034;5.262;2024-01-30T09:29:42;17.30;47.10
12839;DHT22;6486;51.034;5.262;2024-01-30T09:32:08;17.30;47.10
12839;DHT22;6486;51.034;5.262;2024-01-30T09:34:34;17.30;47.10
12839;DHT22;6486;51.034;5.262;2024-01-30T09:37:00;17.40;47.20
12839;DHT22;6486;51.034;5.262;2024-01-30T09:39:26;17.40;47.20
12839;DHT22;6486;51.034;5.262;2024-01-30T09:42:05;17.40;47.20
12839;DHT22;6486;51.034;5.262;2024-01-30T09:44:38;17.40;47.30
12839;DHT22;6486;51.034;5.262;2024-01-30T09:47:03;17.40;47.30
12839;DHT22;6486;51.034;5.262;2024-01-30T09:49:34;17.40;47.30
12839;DHT22;6486;51.034;5.262;2024-01-30T09:52:02;17.40;47.30
12839;DHT22;6486;51.034;5.262;2024-01-30T09:54:31;17.40;47.30
12839;DHT22;6486;51.034;5.262;2024-01-30T09:57:00;17.40;47.30
12839;DHT22;6486;51.034;5.262;2024-01-30T09:59:26;17.50;47.40
12839;DHT22;6486;51.034;5.262;2024-01-30T10:01:52;17.50;47.40
12839;DHT22;6486;51.034;5.262;2024-01-30T10:04:18;17.50;47.40
12839;DHT22;6486;51.034;5.262;2024-01-30T10:06:44;17.50;47.40
12839;DHT22;6486;51.034;5.262;2024-01-30T10:09:09;17.50;47.40
12839;DHT22;6486;51.034;5.262;2024-01-30T10:11:36;17.50;47.40
12839;DHT22;6486;51.034;5.262;2024-01-30T10:14:02;17.50;47.40
12839;DHT22;6486;51.034;5.262;2024-01-30T10:16:28;17.50;47.30
12839;DHT22;6486;51.034;5.262;2024-01-30T10:18:54;17.60;47.50
12839;DHT22;6486;51.034;5.262;2024-01-30T10:21:21;17.60;47.50
12839;DHT22;6486;51.034;5.262;2024-01-30T10:23:46;17.60;47.50
12839;DHT22;6486;51.034;5.262;2024-01-30T10:26:12;17.60;47.50
12839;DHT22;6486;51.034;5.262;2024-01-30T10:28:38;17.60;47.50
12839;DHT22;6486;51.034;5.262;2024-01-30T10:31:04;17.60;47.50
12839;DHT22;6486;51.034;5.262;2024-01-30T10:33:32;17.60;47.50
12839;DHT22;6486;51.034;5.262;2024-01-30T10:36:03;17.60;47.50
12839;DHT22;6486;51.034;5.262;2024-01-30T10:38:30;17.60;47.50
12839;DHT22;6486;51.034;5.262;2024-01-30T10:40:57;17.60;47.50
12839;DHT22;6486;51.034;5.262;2024-01-30T10:43:29;17.60;47.60
12839;DHT22;6486;51.034;5.262;2024-01-30T10:45:57;17.60;47.60
12839;DHT22;6486;51.034;5.262;2024-01-30T10:48:29;17.60;47.70
12839;DHT22;6486;51.034;5.262;2024-01-30T10:50:55;17.60;47.70
12839;DHT22;6486;51.034;5.262;2024-01-30T10:53:24;17.60;47.70
12839;DHT22;6486;51.034;5.262;2024-01-30T10:55:51;17.60;47.70
12839;DHT22;6486;51.034;5.262;2024-01-30T10:58:18;17.60;48.40
12839;DHT22;6486;51.034;5.262;2024-01-30T11:00:44;17.60;47.80
12839;DHT22;6486;51.034;5.262;2024-01-30T11:03:11;17.60;47.80
12839;DHT22;6486;51.034;5.262;2024-01-30T11:05:40;17.60;47.80
12839;DHT22;6486;51.034;5.262;2024-01-30T11:08:15;17.60;47.80
12839;DHT22;6486;51.034;5.262;2024-01-30T11:10:48;17.60;47.80
12839;DHT22;6486;51.034;5.262;2024-01-30T11:13:15;17.60;47.80
12839;DHT22;6486;51.034;5.262;2024-01-30T11:15:41;17.60;47.80
12839;DHT22;6486;51.034;5.262;2024-01-30T11:18:07;17.60;47.80
12839;DHT22;6486;51.034;5.262;2024-01-30T11:20:33;17.70;47.80
12839;DHT22;6486;51.034;5.262;2024-01-30T11:23:01;17.70;47.90
12839;DHT22;6486;51.034;5.262;2024-01-30T11:25:32;17.70;47.90
12839;DHT22;6486;51.034;5.262;2024-01-30T11:27:57;17.70;48.00
12839;DHT22;6486;51.034;5.262;2024-01-30T11:30:30;17.70;48.00
12839;DHT22;6486;51.034;5.262;2024-01-30T11:33:13;17.70;48.00
12839;DHT22;6486;51.034;5.262;2024-01-30T11:35:43;17.70;48.00
12839;DHT22;6486;51.034;5.262;2024-01-30T11:38:14;17.70;48.10
12839;DHT22;6486;51.034;5.262;2024-01-30T11:40:40;17.70;48.10
12839;DHT22;6486;51.034;5.262;2024-01-30T11:43:07;17.70;48.10
12839;DHT22;6486;51.034;5.262;2024-01-30T11:45:34;17.70;48.10
12839;DHT22;6486;51.034;5.262;2024-01-30T11:48:01;17.70;48.20
12839;DHT22;6486;51.034;5.262;2024-01-30T11:50:33;17.70;48.20
12839;DHT22;6486;51.034;5.262;2024-01-30T11:52:59;17.70;48.20
12839;DHT22;6486;51.034;5.262;2024-01-30T11:55:25;17.70;48.20
12839;DHT22;6486;51.034;5.262;2024-01-30T11:57:55;17.70;48.20
12839;DHT22;6486;51.034;5.262;2024-01-30T12:00:21;17.70;48.20
12839;DHT22;6486;51.034;5.262;2024-01-30T12:02:54;17.70;48.20
12839;DHT22;6486;51.034;5.262;2024-01-30T12:05:24;17.70;48.30
12839;DHT22;6486;51.034;5.262;2024-01-30T12:07:50;17.70;48.30
12839;DHT22;6486;51.034;5.262;2024-01-30T12:10:16;17.70;48.40
12839;DHT22;6486;51.034;5.262;2024-01-30T12:12:54;17.70;48.40
12839;DHT22;6486;51.034;5.262;2024-01-30T12:15:21;17.70;48.50
12839;DHT22;6486;51.034;5.262;2024-01-30T12:17:47;17.70;48.40
12839;DHT22;6486;51.034;5.262;2024-01-30T12:20:19;17.70;48.40
12839;DHT22;6486;51.034;5.262;2024-01-30T12:22:46;17.70;48.40
12839;DHT22;6486;51.034;5.262;2024-01-30T12:25:14;17.70;48.30
12839;DHT22;6486;51.034;5.262;2024-01-30T12:27:43;17.70;48.20
12839;DHT22;6486;51.034;5.262;2024-01-30T12:30:11;17.80;48.30
12839;DHT22;6486;51.034;5.262;2024-01-30T12:32:40;17.70;48.20
12839;DHT22;6486;51.034;5.262;2024-01-30T12:35:18;17.70;48.20
12839;DHT22;6486;51.034;5.262;2024-01-30T12:37:45;17.70;48.00
12839;DHT22;6486;51.034;5.262;2024-01-30T12:40:12;17.70;48.00
12839;DHT22;6486;51.034;5.262;2024-01-30T12:42:43;17.80;48.10
12839;DHT22;6486;51.034;5.262;2024-01-30T12:45:11;17.80;48.10
12839;DHT22;6486;51.034;5.262;2024-01-30T12:47:37;17.80;48.00
12839;DHT22;6486;51.034;5.262;2024-01-30T12:50:03;17.80;48.00
12839;DHT22;6486;51.034;5.262;2024-01-30T12:52:29;17.80;48.00
12839;DHT22;6486;51.034;5.262;2024-01-30T12:54:55;17.80;47.90
12839;DHT22;6486;51.034;5.262;2024-01-30T12:57:21;17.80;47.90
12839;DHT22;6486;51.034;5.262;2024-01-30T12:59:47;17.80;47.90
12839;DHT22;6486;51.034;5.262;2024-01-30T13:02:13;17.80;47.90
12839;DHT22;6486;51.034;5.262;2024-01-30T13:04:40;17.80;47.90
12839;DHT22;6486;51.034;5.262;2024-01-30T13:07:06;17.80;47.80
12839;DHT22;6486;51.034;5.262;2024-01-30T13:09:32;17.80;47.80
12839;DHT22;6486;51.034;5.262;2024-01-30T13:11:58;17.80;47.80
12839;DHT22;6486;51.034;5.262;2024-01-30T13:14:25;17.80;47.80
12839;DHT22;6486;51.034;5.262;2024-01-30T13:16:51;17.80;48.40
12839;DHT22;6486;51.034;5.262;2024-01-30T13:19:18;17.80;47.70
12839;DHT22;6486;51.034;5.262;2024-01-30T13:21:43;17.80;47.70
12839;DHT22;6486;51.034;5.262;2024-01-30T13:24:09;17.80;47.70
12839;DHT22;6486;51.034;5.262;2024-01-30T13:26:35;17.80;47.70
12839;DHT22;6486;51.034;5.262;2024-01-30T13:29:01;17.80;47.70
12839;DHT22;6486;51.034;5.262;2024-01-30T13:31:27;17.80;47.70
12839;DHT22;6486;51.034;5.262;2024-01-30T13:33:54;17.80;47.60
12839;DHT22;6486;51.034;5.262;2024-01-30T13:36:20;17.80;47.70
12839;DHT22;6486;51.034;5.262;2024-01-30T13:38:46;17.80;47.60
12839;DHT22;6486;51.034;5.262;2024-01-30T13:41:12;17.80;47.60
12839;DHT22;6486;51.034;5.262;2024-01-30T13:43:38;17.80;47.60
12839;DHT22;6486;51.034;5.262;2024-01-30T13:46:04;17.80;47.60
12839;DHT22;6486;51.034;5.262;2024-01-30T13:48:30;17.80;47.50
12839;DHT22;6486;51.034;5.262;2024-01-30T13:50:56;17.80;47.60
12839;DHT22;6486;51.034;5.262;2024-01-30T13:53:22;17.80;47.50
12839;DHT22;6486;51.034;5.262;2024-01-30T13:55:47;17.70;47.40
12839;DHT22;6486;51.034;5.262;2024-01-30T13:58:13;17.70;47.40
12839;DHT22;6486;51.034;5.262;2024-01-30T14:00:39;17.70;47.40
12839;DHT22;6486;51.034;5.262;2024-01-30T14:03:05;17.70;47.40
12839;DHT22;6486;51.034;5.262;2024-01-30T14:05:31;17.80;47.40
12839;DHT22;6486;51.034;5.262;2024-01-30T14:07:58;17.70;47.30
12839;DHT22;6486;51.034;5.262;2024-01-30T14:10:24;17.80;47.40
12839;DHT22;6486;51.034;5.262;2024-01-30T14:12:50;17.80;47.30
12839;DHT22;6486;51.034;5.262;2024-01-30T14:15:16;17.80;47.30
12839;DHT22;6486;51.034;5.262;2024-01-30T14:17:45;17.80;47.30
12839;DHT22;6486;51.034;5.262;2024-01-30T14:20:14;17.80;47.20
12839;DHT22;6486;51.034;5.262;2024-01-30T14:22:39;17.80;47.10
12839;DHT22;6486;51.034;5.262;2024-01-30T14:25:06;17.80;47.10
12839;DHT22;6486;51.034;5.262;2024-01-30T14:27:32;17.80;47.70
12839;DHT22;6486;51.034;5.262;2024-01-30T14:29:58;17.80;47.10
12839;DHT22;6486;51.034;5.262;2024-01-30T14:32:24;17.80;47.00
12839;DHT22;6486;51.034;5.262;2024-01-30T14:34:53;17.80;47.00
12839;DHT22;6486;51.034;5.262;2024-01-30T14:37:20;17.80;46.90
12839;DHT22;6486;51.034;5.262;2024-01-30T14:39:46;17.80;46.90
12839;DHT22;6486;51.034;5.262;2024-01-30T14:42:13;17.80;46.90
12839;DHT22;6486;51.034;5.262;2024-01-30T14:44:39;17.80;46.80
12839;DHT22;6486;51.034;5.262;2024-01-30T14:47:05;17.80;46.80
12839;DHT22;6486;51.034;5.262;2024-01-30T14:49:31;17.80;46.80
12839;DHT22;6486;51.034;5.262;2024-01-30T14:51:57;17.80;46.80
12839;DHT22;6486;51.034;5.262;2024-01-30T14:54:24;17.80;46.80
12839;DHT22;6486;51.034;5.262;2024-01-30T14:56:50;17.80;46.70
12839;DHT22;6486;51.034;5.262;2024-01-30T14:59:16;17.80;46.80
12839;DHT22;6486;51.034;5.262;2024-01-30T15:01:42;17.80;46.80
12839;DHT22;6486;51.034;5.262;2024-01-30T15:04:08;17.80;46.80
12839;DHT22;6486;51.034;5.262;2024-01-30T15:06:34;17.80;46.70
12839;DHT22;6486;51.034;5.262;2024-01-30T15:09:00;17.80;46.80
12839;DHT22;6486;51.034;5.262;2024-01-30T15:11:25;17.80;46.70
12839;DHT22;6486;51.034;5.262;2024-01-30T15:13:51;17.80;46.70
12839;DHT22;6486;51.034;5.262;2024-01-30T15:16:17;17.80;46.70
12839;DHT22;6486;51.034;5.262;2024-01-30T15:18:43;17.80;46.70
12839;DHT22;6486;51.034;5.262;2024-01-30T15:21:08;17.80;46.70
12839;DHT22;6486;51.034;5.262;2024-01-30T15:23:34;17.80;46.70
12839;DHT22;6486;51.034;5.262;2024-01-30T15:26:00;17.80;46.70
12839;DHT22;6486;51.034;5.262;2024-01-30T15:28:36;17.80;46.80
12839;DHT22;6486;51.034;5.262;2024-01-30T15:31:03;17.80;46.80
12839;DHT22;6486;51.034;5.262;2024-01-30T15:33:29;17.80;46.80
12839;DHT22;6486;51.034;5.262;2024-01-30T15:35:55;17.80;46.70
12839;DHT22;6486;51.034;5.262;2024-01-30T15:38:21;17.80;46.80
12839;DHT22;6486;51.034;5.262;2024-01-30T15:40:47;17.70;46.70
12839;DHT22;6486;51.034;5.262;2024-01-30T15:43:12;17.70;46.70
12839;DHT22;6486;51.034;5.262;2024-01-30T15:45:38;17.80;46.80